createdAt,value
2022-08-08T00:00:50.113Z,19.80
2022-08-08T00:04:49.194Z,19.80
2022-08-08T00:10:18.096Z,19.80
2022-08-08T00:15:57.238Z,19.80
2022-08-08T00:20:58.392Z,19.90
2022-08-08T00:26:01.952Z,19.90
2022-08-08T00:32:20.055Z,19.70
2022-08-08T00:36:35.233Z,19.80
2022-08-08T00:42:08.319Z,19.80
2022-08-08T00:47:36.801Z,19.90
2022-08-08T00:53:56.974Z,19.90
2022-08-08T00:59:15.453Z,19.90
2022-08-08T01:04:29.665Z,19.80
2022-08-08T01:09:49.284Z,19.80
2022-08-08T01:15:12.077Z,19.80
2022-08-08T01:20:57.893Z,19.80
2022-08-08T01:26:24.637Z,19.80
2022-08-08T01:32:13.483Z,19.80
2022-08-08T01:37:21.898Z,19.60
2022-08-08T01:42:51.728Z,19.70
2022-08-08T01:48:16.872Z,19.60
2022-08-08T01:55:15.717Z,19.80
2022-08-08T02:00:01.356Z,19.80
2022-08-08T02:05:24.977Z,19.60
2022-08-08T02:11:01.099Z,19.60
2022-08-08T02:16:22.836Z,19.40
2022-08-08T02:21:53.976Z,19.60
2022-08-08T02:27:01.109Z,19.70
2022-08-08T02:32:22.758Z,19.70
2022-08-08T02:37:52.306Z,19.70
2022-08-08T02:44:35.380Z,19.60
2022-08-08T02:48:38.370Z,19.50
2022-08-08T02:54:07.310Z,19.60
2022-08-08T02:59:05.966Z,19.50
2022-08-08T03:05:04.493Z,19.50
2022-08-08T03:10:44.377Z,19.50
2022-08-08T03:16:09.123Z,19.70
2022-08-08T03:21:10.065Z,19.70
2022-08-08T03:26:08.334Z,19.50
2022-08-08T03:31:25.920Z,19.30
2022-08-08T03:36:27.856Z,19.30
2022-08-08T03:42:11.938Z,19.30
2022-08-08T03:46:54.000Z,19.20
2022-08-08T03:51:54.230Z,19.20
2022-08-08T03:56:52.182Z,19.10
2022-08-08T04:02:13.012Z,19.10
2022-08-08T04:07:08.222Z,19.00
2022-08-08T04:12:07.658Z,19.00
2022-08-08T04:17:22.891Z,19.10
2022-08-08T04:22:29.335Z,19.00
2022-08-08T04:28:03.053Z,19.10
2022-08-08T04:32:47.998Z,19.20
2022-08-08T04:37:49.182Z,19.30
2022-08-08T04:42:57.328Z,19.40
2022-08-08T04:48:00.426Z,19.10
2022-08-08T04:53:00.514Z,19.30
2022-08-08T04:58:02.171Z,19.30
2022-08-08T05:02:59.566Z,19.20
2022-08-08T05:07:57.159Z,19.20
2022-08-08T05:13:01.530Z,19.10
2022-08-08T05:17:59.891Z,19.20
2022-08-08T05:22:57.177Z,19.50
2022-08-08T05:27:55.241Z,19.50
2022-08-08T05:32:53.992Z,19.40
2022-08-08T05:38:31.840Z,19.40
2022-08-08T05:44:02.345Z,19.60
2022-08-08T05:48:52.270Z,19.50
2022-08-08T05:54:25.953Z,19.40
2022-08-08T05:59:59.552Z,19.40
2022-08-08T06:04:41.268Z,19.60
2022-08-08T06:09:59.734Z,19.80
2022-08-08T06:15:00.568Z,19.70
2022-08-08T06:19:58.728Z,19.70
2022-08-08T06:24:57.211Z,19.80
2022-08-08T06:30:05.652Z,19.60
2022-08-08T06:36:08.190Z,19.80
2022-08-08T06:40:33.338Z,19.70
2022-08-08T06:45:34.449Z,19.70
2022-08-08T06:50:33.730Z,20.00
2022-08-08T06:55:37.629Z,19.90
2022-08-08T07:00:41.023Z,19.80
2022-08-08T07:05:40.012Z,19.90
2022-08-08T07:10:45.984Z,19.90
2022-08-08T07:16:11.868Z,19.90
2022-08-08T07:21:19.017Z,20.00
2022-08-08T07:26:21.773Z,20.00
2022-08-08T07:31:30.650Z,20.00
2022-08-08T07:36:34.219Z,20.10
2022-08-08T07:41:58.907Z,20.30
2022-08-08T07:46:50.874Z,20.40
2022-08-08T07:51:53.703Z,20.30
2022-08-08T07:57:09.001Z,20.40
2022-08-08T08:02:36.802Z,20.50
2022-08-08T08:07:37.803Z,20.40
2022-08-08T08:12:41.385Z,20.50
2022-08-08T08:17:48.785Z,20.60
2022-08-08T08:22:47.384Z,20.70
2022-08-08T08:27:46.666Z,20.80
2022-08-08T08:32:51.145Z,20.80
2022-08-08T08:38:14.808Z,20.90
2022-08-08T08:43:11.784Z,21.30
2022-08-08T08:48:19.183Z,21.30
2022-08-08T08:53:55.441Z,21.30
2022-08-08T08:58:47.005Z,20.90
2022-08-08T09:03:50.749Z,21.00
2022-08-08T09:09:05.432Z,21.10
2022-08-08T09:14:05.075Z,21.10
2022-08-08T09:19:02.654Z,21.20
2022-08-08T09:24:01.390Z,21.30
2022-08-08T09:29:09.480Z,21.60
2022-08-08T09:34:31.012Z,21.80
2022-08-08T09:39:32.925Z,21.80
2022-08-08T09:44:39.741Z,21.60
2022-08-08T09:49:49.544Z,21.70
2022-08-08T09:54:48.817Z,21.80
2022-08-08T10:00:29.965Z,21.70
2022-08-08T10:05:14.491Z,21.90
2022-08-08T10:10:12.974Z,21.80
2022-08-08T10:15:17.183Z,21.70
2022-08-08T10:20:16.973Z,21.60
2022-08-08T10:25:21.091Z,21.60
2022-08-08T10:30:57.034Z,21.70
2022-08-08T10:36:08.219Z,21.70
2022-08-08T10:40:56.518Z,21.70
2022-08-08T10:45:58.900Z,21.70
2022-08-08T10:50:56.299Z,21.80
2022-08-08T10:55:58.838Z,21.90
2022-08-08T11:01:02.040Z,21.90
2022-08-08T11:06:01.357Z,21.90
2022-08-08T11:11:32.543Z,22.20
2022-08-08T11:16:32.362Z,22.50
2022-08-08T11:21:37.642Z,22.40
2022-08-08T11:26:53.852Z,22.40
2022-08-08T11:31:56.788Z,22.70
2022-08-08T11:36:58.601Z,22.70
2022-08-08T11:41:58.790Z,22.90
2022-08-08T11:46:58.076Z,23.30
2022-08-08T11:51:55.997Z,23.30
2022-08-08T11:56:56.357Z,23.40
2022-08-08T12:02:30.611Z,23.70
2022-08-08T12:07:25.721Z,23.60
2022-08-08T12:12:28.640Z,23.20
2022-08-08T12:17:36.157Z,23.00
2022-08-08T12:22:44.849Z,23.20
2022-08-08T12:27:45.714Z,23.60
2022-08-08T12:32:48.218Z,23.80
2022-08-08T12:38:01.195Z,23.80
2022-08-08T12:42:59.984Z,24.00
2022-08-08T12:48:32.170Z,23.90
2022-08-08T12:53:37.829Z,23.90
2022-08-08T12:58:48.070Z,23.80
2022-08-08T13:03:51.855Z,24.10
2022-08-08T13:08:53.493Z,24.70
2022-08-08T13:14:04.704Z,24.30
2022-08-08T13:19:12.345Z,24.30
2022-08-08T13:24:19.091Z,24.70
2022-08-08T13:29:40.567Z,24.50
2022-08-08T13:34:39.816Z,24.10
2022-08-08T13:39:37.822Z,24.60
2022-08-08T13:44:35.832Z,25.00
2022-08-08T13:50:36.486Z,24.50
2022-08-08T13:54:58.775Z,24.50
2022-08-08T14:00:22.027Z,24.30
2022-08-08T14:05:28.619Z,24.60
2022-08-08T14:10:37.463Z,24.70
2022-08-08T14:15:39.911Z,25.10
2022-08-08T14:20:56.139Z,24.60
2022-08-08T14:26:10.473Z,24.70
2022-08-08T14:31:10.748Z,24.00
2022-08-08T14:36:13.848Z,24.00
2022-08-08T14:41:18.624Z,24.00
2022-08-08T14:46:34.175Z,24.00
2022-08-08T14:51:51.732Z,24.10
2022-08-08T14:56:50.848Z,24.00
2022-08-08T15:01:51.268Z,23.60
2022-08-08T15:06:48.849Z,23.60
2022-08-08T15:11:53.075Z,23.60
2022-08-08T15:16:51.067Z,23.50
2022-08-08T15:21:48.667Z,23.60
2022-08-08T15:26:52.513Z,23.40
2022-08-08T15:32:03.231Z,23.30
2022-08-08T15:37:08.317Z,23.20
2022-08-08T15:42:13.093Z,23.20
2022-08-08T15:47:15.837Z,23.30
2022-08-08T15:52:18.308Z,23.30
2022-08-08T15:57:18.490Z,23.30
2022-08-08T16:02:15.941Z,23.20
2022-08-08T16:07:18.089Z,23.10
2022-08-08T16:13:15.358Z,23.20
2022-08-08T16:17:57.753Z,23.20
2022-08-08T16:22:52.164Z,23.20
2022-08-08T16:27:57.161Z,23.20
2022-08-08T16:32:55.408Z,23.00
2022-08-08T16:37:54.056Z,22.80
2022-08-08T16:42:54.275Z,22.80
2022-08-08T16:47:52.136Z,22.70
2022-08-08T16:54:59.751Z,22.80
2022-08-08T16:58:14.268Z,22.80
2022-08-08T17:03:13.867Z,22.70
2022-08-08T17:08:11.783Z,22.60
2022-08-08T17:13:11.213Z,22.60
2022-08-08T17:18:15.898Z,22.50
2022-08-08T17:23:17.842Z,22.30
2022-08-08T17:28:34.657Z,22.30
2022-08-08T17:34:53.563Z,22.20
2022-08-08T17:38:50.255Z,22.00
2022-08-08T17:44:01.638Z,21.90
2022-08-08T17:48:59.615Z,21.80
2022-08-08T17:53:57.748Z,21.80
2022-08-08T17:58:55.473Z,21.70
2022-08-08T18:03:52.783Z,21.40
2022-08-08T18:08:50.702Z,21.30
2022-08-08T18:13:52.801Z,21.20
2022-08-08T18:18:56.384Z,21.30
2022-08-08T18:23:55.605Z,21.10
2022-08-08T18:28:55.410Z,21.00
2022-08-08T18:34:24.982Z,20.80
2022-08-08T18:39:10.809Z,20.90
2022-08-08T18:44:14.054Z,20.80
2022-08-08T18:49:11.610Z,20.60
2022-08-08T18:54:22.043Z,20.70
2022-08-08T18:59:22.812Z,20.60
2022-08-08T19:04:20.442Z,20.30
2022-08-08T19:09:19.028Z,20.30
2022-08-08T19:14:29.655Z,20.50
2022-08-08T19:19:27.784Z,20.20
2022-08-08T19:24:39.004Z,20.30
2022-08-08T19:29:45.966Z,20.50
2022-08-08T19:34:43.506Z,20.50
2022-08-08T19:39:41.531Z,20.40
2022-08-08T19:44:45.828Z,20.40
2022-08-08T19:49:59.779Z,20.40
2022-08-08T19:55:01.674Z,20.30
2022-08-08T20:00:04.100Z,20.30
2022-08-08T20:05:12.101Z,20.20
2022-08-08T20:10:09.903Z,20.10
2022-08-08T20:15:14.425Z,20.00
2022-08-08T20:20:19.646Z,20.10
2022-08-08T20:25:20.410Z,20.00
2022-08-08T20:30:38.900Z,19.80
2022-08-08T20:35:56.802Z,19.70
2022-08-08T20:40:54.024Z,19.50
2022-08-08T20:45:57.792Z,19.60
2022-08-08T20:51:02.285Z,19.60
2022-08-08T20:56:00.445Z,19.40
2022-08-08T21:00:58.479Z,19.30
2022-08-08T21:05:58.787Z,19.40
2022-08-08T21:10:57.002Z,19.50
2022-08-08T21:16:04.795Z,19.50
2022-08-08T21:21:29.734Z,19.50
2022-08-08T21:26:37.297Z,19.20
2022-08-08T21:31:58.516Z,19.10
2022-08-08T21:36:55.810Z,18.90
2022-08-08T21:41:59.077Z,18.90
2022-08-08T21:48:01.686Z,18.90
2022-08-08T21:54:22.620Z,19.00
2022-08-08T21:57:42.236Z,19.20
2022-08-08T22:02:40.836Z,19.30
2022-08-08T22:07:40.938Z,19.30
2022-08-08T22:12:39.084Z,19.30
2022-08-08T22:17:45.225Z,19.20
2022-08-08T22:22:43.804Z,19.10
2022-08-08T22:28:02.612Z,18.90
2022-08-08T22:33:21.910Z,18.60
2022-08-08T22:38:24.852Z,18.40
2022-08-08T22:43:22.334Z,18.40
2022-08-08T22:48:21.646Z,18.10
2022-08-08T22:54:29.645Z,18.10
2022-08-08T22:58:38.085Z,18.20
2022-08-08T23:03:53.564Z,18.40
2022-08-08T23:08:54.777Z,18.40
2022-08-08T23:14:01.665Z,18.40
2022-08-08T23:19:00.032Z,18.30
2022-08-08T23:23:57.602Z,18.30
2022-08-08T23:28:54.939Z,18.40
2022-08-08T23:34:16.962Z,18.30
2022-08-08T23:39:09.710Z,18.40
2022-08-08T23:44:07.234Z,18.40
2022-08-08T23:49:20.266Z,18.40
2022-08-08T23:54:41.828Z,18.30
2022-08-08T23:59:35.598Z,18.30
